sensor_id;sensor_type;location;lat;lon;timestamp;P1;durP1;ratioP1;P2;durP2;ratioP2
16820;SDS011;8527;49.740;6.604;2023-09-12T00:03:32;27.17;;;14.00;;
16820;SDS011;8527;49.740;6.604;2023-09-12T00:08:34;27.92;;;13.23;;
16820;SDS011;8527;49.740;6.604;2023-09-12T00:13:32;24.00;;;14.00;;
16820;SDS011;8527;49.740;6.604;2023-09-12T00:18:31;23.75;;;12.70;;
16820;SDS011;8527;49.740;6.604;2023-09-12T00:23:30;29.90;;;14.18;;
16820;SDS011;8527;49.740;6.604;2023-09-12T00:28:37;21.45;;;12.68;;
16820;SDS011;8527;49.740;6.604;2023-09-12T00:33:38;24.48;;;13.45;;
16820;SDS011;8527;49.740;6.604;2023-09-12T00:38:38;26.45;;;14.05;;
16820;SDS011;8527;49.740;6.604;2023-09-12T00:43:39;27.58;;;14.15;;
16820;SDS011;8527;49.740;6.604;2023-09-12T00:48:40;24.70;;;13.68;;
16820;SDS011;8527;49.740;6.604;2023-09-12T00:53:41;32.35;;;14.05;;
16820;SDS011;8527;49.740;6.604;2023-09-12T00:58:41;26.17;;;13.30;;
16820;SDS011;8527;49.740;6.604;2023-09-12T01:03:42;26.08;;;12.90;;
16820;SDS011;8527;49.740;6.604;2023-09-12T01:08:44;27.40;;;12.30;;
16820;SDS011;8527;49.740;6.604;2023-09-12T01:13:42;24.35;;;13.07;;
16820;SDS011;8527;49.740;6.604;2023-09-12T01:18:41;30.67;;;14.20;;
16820;SDS011;8527;49.740;6.604;2023-09-12T01:23:47;23.75;;;12.48;;
16820;SDS011;8527;49.740;6.604;2023-09-12T01:29:00;27.10;;;13.48;;
16820;SDS011;8527;49.740;6.604;2023-09-12T01:34:08;27.48;;;13.70;;
16820;SDS011;8527;49.740;6.604;2023-09-12T01:39:11;25.73;;;13.75;;
16820;SDS011;8527;49.740;6.604;2023-09-12T01:44:13;27.25;;;13.52;;
16820;SDS011;8527;49.740;6.604;2023-09-12T01:49:15;25.48;;;12.48;;
16820;SDS011;8527;49.740;6.604;2023-09-12T01:54:17;24.75;;;12.73;;
16820;SDS011;8527;49.740;6.604;2023-09-12T01:59:19;24.20;;;12.95;;
16820;SDS011;8527;49.740;6.604;2023-09-12T02:04:20;27.45;;;12.70;;
16820;SDS011;8527;49.740;6.604;2023-09-12T02:09:21;27.30;;;14.20;;
16820;SDS011;8527;49.740;6.604;2023-09-12T02:14:23;33.30;;;12.80;;
16820;SDS011;8527;49.740;6.604;2023-09-12T02:19:24;27.48;;;13.18;;
16820;SDS011;8527;49.740;6.604;2023-09-12T02:24:22;26.38;;;12.88;;
16820;SDS011;8527;49.740;6.604;2023-09-12T02:29:25;31.88;;;13.65;;
16820;SDS011;8527;49.740;6.604;2023-09-12T02:34:27;31.67;;;13.57;;
16820;SDS011;8527;49.740;6.604;2023-09-12T02:39:26;23.92;;;13.18;;
16820;SDS011;8527;49.740;6.604;2023-09-12T02:44:29;26.63;;;13.95;;
16820;SDS011;8527;49.740;6.604;2023-09-12T02:49:28;30.40;;;13.57;;
16820;SDS011;8527;49.740;6.604;2023-09-12T02:54:26;39.60;;;14.65;;
16820;SDS011;8527;49.740;6.604;2023-09-12T02:59:24;26.08;;;14.35;;
16820;SDS011;8527;49.740;6.604;2023-09-12T03:04:26;31.25;;;13.25;;
16820;SDS011;8527;49.740;6.604;2023-09-12T03:09:25;27.98;;;13.35;;
16820;SDS011;8527;49.740;6.604;2023-09-12T03:14:23;25.85;;;13.90;;
16820;SDS011;8527;49.740;6.604;2023-09-12T03:19:22;28.33;;;14.50;;
16820;SDS011;8527;49.740;6.604;2023-09-12T03:24:23;27.20;;;13.52;;
16820;SDS011;8527;49.740;6.604;2023-09-12T03:29:24;31.13;;;13.93;;
16820;SDS011;8527;49.740;6.604;2023-09-12T03:34:22;25.77;;;13.60;;
16820;SDS011;8527;49.740;6.604;2023-09-12T03:39:26;32.60;;;14.90;;
16820;SDS011;8527;49.740;6.604;2023-09-12T03:44:24;36.42;;;15.95;;
16820;SDS011;8527;49.740;6.604;2023-09-12T03:49:25;30.70;;;16.35;;
16820;SDS011;8527;49.740;6.604;2023-09-12T03:54:27;37.20;;;16.33;;
16820;SDS011;8527;49.740;6.604;2023-09-12T03:59:25;34.03;;;16.88;;
16820;SDS011;8527;49.740;6.604;2023-09-12T04:04:26;38.83;;;15.38;;
16820;SDS011;8527;49.740;6.604;2023-09-12T04:09:30;28.80;;;15.57;;
16820;SDS011;8527;49.740;6.604;2023-09-12T04:14:35;25.23;;;14.40;;
16820;SDS011;8527;49.740;6.604;2023-09-12T04:19:40;28.60;;;14.30;;
16820;SDS011;8527;49.740;6.604;2023-09-12T04:24:41;33.47;;;13.43;;
16820;SDS011;8527;49.740;6.604;2023-09-12T04:29:39;26.70;;;14.82;;
16820;SDS011;8527;49.740;6.604;2023-09-12T04:34:37;30.40;;;14.52;;
16820;SDS011;8527;49.740;6.604;2023-09-12T04:39:36;28.83;;;14.45;;
16820;SDS011;8527;49.740;6.604;2023-09-12T04:44:38;26.90;;;14.75;;
16820;SDS011;8527;49.740;6.604;2023-09-12T04:49:38;26.42;;;14.10;;
16820;SDS011;8527;49.740;6.604;2023-09-12T04:54:37;24.63;;;13.68;;
16820;SDS011;8527;49.740;6.604;2023-09-12T04:59:55;30.27;;;14.40;;
16820;SDS011;8527;49.740;6.604;2023-09-12T05:04:53;28.23;;;15.02;;
16820;SDS011;8527;49.740;6.604;2023-09-12T05:09:55;28.65;;;14.98;;
16820;SDS011;8527;49.740;6.604;2023-09-12T05:14:56;31.13;;;14.85;;
16820;SDS011;8527;49.740;6.604;2023-09-12T05:19:54;24.25;;;14.00;;
16820;SDS011;8527;49.740;6.604;2023-09-12T05:24:53;29.45;;;14.93;;
16820;SDS011;8527;49.740;6.604;2023-09-12T05:29:51;28.35;;;16.83;;
16820;SDS011;8527;49.740;6.604;2023-09-12T05:34:53;37.47;;;17.98;;
16820;SDS011;8527;49.740;6.604;2023-09-12T05:39:52;46.20;;;19.48;;
16820;SDS011;8527;49.740;6.604;2023-09-12T05:44:50;39.50;;;19.30;;
16820;SDS011;8527;49.740;6.604;2023-09-12T05:49:57;34.83;;;18.17;;
16820;SDS011;8527;49.740;6.604;2023-09-12T05:54:56;29.35;;;15.85;;
16820;SDS011;8527;49.740;6.604;2023-09-12T05:59:57;41.70;;;16.67;;
16820;SDS011;8527;49.740;6.604;2023-09-12T06:04:58;30.85;;;16.17;;
16820;SDS011;8527;49.740;6.604;2023-09-12T06:09:57;34.05;;;17.73;;
16820;SDS011;8527;49.740;6.604;2023-09-12T06:14:59;34.88;;;17.13;;
16820;SDS011;8527;49.740;6.604;2023-09-12T06:20:00;36.00;;;17.90;;
16820;SDS011;8527;49.740;6.604;2023-09-12T06:25:05;42.85;;;18.65;;
16820;SDS011;8527;49.740;6.604;2023-09-12T06:30:05;35.78;;;18.83;;
16820;SDS011;8527;49.740;6.604;2023-09-12T06:35:10;36.13;;;19.88;;
16820;SDS011;8527;49.740;6.604;2023-09-12T06:40:08;32.30;;;18.75;;
16820;SDS011;8527;49.740;6.604;2023-09-12T06:45:10;38.25;;;20.15;;
16820;SDS011;8527;49.740;6.604;2023-09-12T06:50:14;50.38;;;20.23;;
16820;SDS011;8527;49.740;6.604;2023-09-12T06:55:13;35.78;;;18.67;;
16820;SDS011;8527;49.740;6.604;2023-09-12T07:00:14;35.28;;;18.15;;
16820;SDS011;8527;49.740;6.604;2023-09-12T07:05:16;33.20;;;17.30;;
16820;SDS011;8527;49.740;6.604;2023-09-12T07:10:14;30.85;;;17.38;;
16820;SDS011;8527;49.740;6.604;2023-09-12T07:15:13;42.38;;;19.65;;
16820;SDS011;8527;49.740;6.604;2023-09-12T07:20:11;35.95;;;18.90;;
16820;SDS011;8527;49.740;6.604;2023-09-12T07:25:13;40.42;;;19.70;;
16820;SDS011;8527;49.740;6.604;2023-09-12T07:30:13;44.55;;;18.88;;
16820;SDS011;8527;49.740;6.604;2023-09-12T07:35:14;38.13;;;18.75;;
16820;SDS011;8527;49.740;6.604;2023-09-12T07:40:17;45.70;;;18.33;;
16820;SDS011;8527;49.740;6.604;2023-09-12T07:45:15;32.60;;;17.88;;
16820;SDS011;8527;49.740;6.604;2023-09-12T07:50:15;42.50;;;19.08;;
16820;SDS011;8527;49.740;6.604;2023-09-12T07:55:16;35.20;;;17.52;;
16820;SDS011;8527;49.740;6.604;2023-09-12T08:00:23;33.83;;;17.27;;
16820;SDS011;8527;49.740;6.604;2023-09-12T08:05:22;33.72;;;15.77;;
16820;SDS011;8527;49.740;6.604;2023-09-12T08:10:23;32.00;;;17.55;;
16820;SDS011;8527;49.740;6.604;2023-09-12T08:15:21;37.95;;;17.38;;
16820;SDS011;8527;49.740;6.604;2023-09-12T08:20:25;37.70;;;19.33;;
16820;SDS011;8527;49.740;6.604;2023-09-12T08:25:26;37.03;;;18.05;;
16820;SDS011;8527;49.740;6.604;2023-09-12T08:30:27;35.95;;;18.20;;
16820;SDS011;8527;49.740;6.604;2023-09-12T08:35:28;44.40;;;20.67;;
16820;SDS011;8527;49.740;6.604;2023-09-12T08:40:29;34.70;;;18.90;;
16820;SDS011;8527;49.740;6.604;2023-09-12T08:45:28;39.53;;;18.73;;
16820;SDS011;8527;49.740;6.604;2023-09-12T08:50:31;36.85;;;19.85;;
16820;SDS011;8527;49.740;6.604;2023-09-12T08:55:33;40.17;;;20.35;;
16820;SDS011;8527;49.740;6.604;2023-09-12T09:00:32;37.75;;;19.48;;
16820;SDS011;8527;49.740;6.604;2023-09-12T09:05:40;47.53;;;21.42;;
16820;SDS011;8527;49.740;6.604;2023-09-12T09:10:57;49.10;;;21.65;;
16820;SDS011;8527;49.740;6.604;2023-09-12T09:16:08;39.00;;;18.48;;
16820;SDS011;8527;49.740;6.604;2023-09-12T09:21:14;37.65;;;17.77;;
16820;SDS011;8527;49.740;6.604;2023-09-12T09:26:18;39.72;;;18.63;;
16820;SDS011;8527;49.740;6.604;2023-09-12T09:31:17;30.65;;;18.77;;
16820;SDS011;8527;49.740;6.604;2023-09-12T09:36:19;35.42;;;18.40;;
16820;SDS011;8527;49.740;6.604;2023-09-12T09:41:22;37.78;;;18.73;;
16820;SDS011;8527;49.740;6.604;2023-09-12T09:46:23;35.60;;;19.25;;
16820;SDS011;8527;49.740;6.604;2023-09-12T09:51:22;46.00;;;19.83;;
16820;SDS011;8527;49.740;6.604;2023-09-12T09:56:23;35.47;;;18.73;;
16820;SDS011;8527;49.740;6.604;2023-09-12T10:01:23;38.78;;;20.17;;
16820;SDS011;8527;49.740;6.604;2023-09-12T10:06:25;35.22;;;18.27;;
16820;SDS011;8527;49.740;6.604;2023-09-12T10:11:27;34.75;;;18.08;;
16820;SDS011;8527;49.740;6.604;2023-09-12T10:16:29;34.88;;;19.45;;
16820;SDS011;8527;49.740;6.604;2023-09-12T10:21:29;46.00;;;19.52;;
16820;SDS011;8527;49.740;6.604;2023-09-12T10:26:34;38.85;;;19.45;;
16820;SDS011;8527;49.740;6.604;2023-09-12T10:31:37;44.25;;;19.20;;
16820;SDS011;8527;49.740;6.604;2023-09-12T10:36:37;43.83;;;21.00;;
16820;SDS011;8527;49.740;6.604;2023-09-12T10:41:40;49.30;;;20.52;;
16820;SDS011;8527;49.740;6.604;2023-09-12T10:46:38;42.63;;;20.05;;
16820;SDS011;8527;49.740;6.604;2023-09-12T10:51:38;43.83;;;19.50;;
16820;SDS011;8527;49.740;6.604;2023-09-12T10:56:40;40.10;;;18.98;;
16820;SDS011;8527;49.740;6.604;2023-09-12T11:01:42;44.70;;;19.17;;
16820;SDS011;8527;49.740;6.604;2023-09-12T11:06:43;49.00;;;21.10;;
16820;SDS011;8527;49.740;6.604;2023-09-12T11:11:45;32.45;;;17.80;;
16820;SDS011;8527;49.740;6.604;2023-09-12T11:16:57;39.08;;;18.55;;
16820;SDS011;8527;49.740;6.604;2023-09-12T11:22:23;41.35;;;19.50;;
16820;SDS011;8527;49.740;6.604;2023-09-12T11:27:31;36.97;;;18.15;;
16820;SDS011;8527;49.740;6.604;2023-09-12T11:32:30;32.38;;;17.45;;
16820;SDS011;8527;49.740;6.604;2023-09-12T11:37:31;36.30;;;17.52;;
16820;SDS011;8527;49.740;6.604;2023-09-12T11:42:34;40.78;;;18.55;;
16820;SDS011;8527;49.740;6.604;2023-09-12T11:47:39;35.80;;;18.88;;
16820;SDS011;8527;49.740;6.604;2023-09-12T11:52:38;37.42;;;17.60;;
16820;SDS011;8527;49.740;6.604;2023-09-12T11:57:42;36.50;;;17.58;;
16820;SDS011;8527;49.740;6.604;2023-09-12T12:02:40;31.80;;;16.35;;
16820;SDS011;8527;49.740;6.604;2023-09-12T12:07:41;32.85;;;15.70;;
16820;SDS011;8527;49.740;6.604;2023-09-12T12:12:44;34.42;;;16.60;;
16820;SDS011;8527;49.740;6.604;2023-09-12T12:17:43;29.83;;;16.67;;
16820;SDS011;8527;49.740;6.604;2023-09-12T12:22:42;42.30;;;16.90;;
16820;SDS011;8527;49.740;6.604;2023-09-12T12:27:41;26.38;;;14.77;;
16820;SDS011;8527;49.740;6.604;2023-09-12T12:32:42;27.08;;;14.45;;
16820;SDS011;8527;49.740;6.604;2023-09-12T12:37:43;25.15;;;14.45;;
16820;SDS011;8527;49.740;6.604;2023-09-12T12:42:41;26.65;;;15.38;;
16820;SDS011;8527;49.740;6.604;2023-09-12T12:47:44;38.47;;;16.52;;
16820;SDS011;8527;49.740;6.604;2023-09-12T12:52:42;28.75;;;15.00;;
16820;SDS011;8527;49.740;6.604;2023-09-12T12:57:41;32.42;;;14.88;;
16820;SDS011;8527;49.740;6.604;2023-09-12T13:02:43;28.75;;;15.48;;
16820;SDS011;8527;49.740;6.604;2023-09-12T13:07:45;31.15;;;14.55;;
16820;SDS011;8527;49.740;6.604;2023-09-12T13:12:43;27.48;;;15.18;;
16820;SDS011;8527;49.740;6.604;2023-09-12T13:17:45;33.60;;;14.52;;
16820;SDS011;8527;49.740;6.604;2023-09-12T13:22:49;32.38;;;15.05;;
16820;SDS011;8527;49.740;6.604;2023-09-12T13:27:47;24.92;;;13.48;;
16820;SDS011;8527;49.740;6.604;2023-09-12T13:32:48;29.08;;;14.65;;
16820;SDS011;8527;49.740;6.604;2023-09-12T13:37:47;26.55;;;14.55;;
16820;SDS011;8527;49.740;6.604;2023-09-12T13:42:45;25.67;;;13.65;;
16820;SDS011;8527;49.740;6.604;2023-09-12T13:47:43;26.23;;;13.85;;
16820;SDS011;8527;49.740;6.604;2023-09-12T13:52:47;24.10;;;12.88;;
16820;SDS011;8527;49.740;6.604;2023-09-12T13:57:45;25.65;;;12.98;;
16820;SDS011;8527;49.740;6.604;2023-09-12T14:02:44;27.77;;;12.82;;
16820;SDS011;8527;49.740;6.604;2023-09-12T14:07:45;24.00;;;12.75;;
16820;SDS011;8527;49.740;6.604;2023-09-12T14:12:44;25.90;;;13.30;;
16820;SDS011;8527;49.740;6.604;2023-09-12T14:17:45;32.88;;;14.05;;
16820;SDS011;8527;49.740;6.604;2023-09-12T14:22:46;19.92;;;12.88;;
16820;SDS011;8527;49.740;6.604;2023-09-12T14:27:44;20.48;;;13.40;;
16820;SDS011;8527;49.740;6.604;2023-09-12T14:32:42;27.73;;;13.38;;
16820;SDS011;8527;49.740;6.604;2023-09-12T14:37:41;21.38;;;13.05;;
16820;SDS011;8527;49.740;6.604;2023-09-12T14:42:45;24.88;;;13.65;;
16820;SDS011;8527;49.740;6.604;2023-09-12T14:47:45;23.75;;;13.45;;
16820;SDS011;8527;49.740;6.604;2023-09-12T14:52:48;20.70;;;12.32;;
16820;SDS011;8527;49.740;6.604;2023-09-12T14:57:52;27.63;;;13.00;;
16820;SDS011;8527;49.740;6.604;2023-09-12T15:02:54;24.08;;;13.57;;
16820;SDS011;8527;49.740;6.604;2023-09-12T15:07:57;25.40;;;13.32;;
16820;SDS011;8527;49.740;6.604;2023-09-12T15:12:56;26.58;;;14.23;;
16820;SDS011;8527;49.740;6.604;2023-09-12T15:17:54;28.33;;;14.65;;
16820;SDS011;8527;49.740;6.604;2023-09-12T15:22:54;26.65;;;14.68;;
16820;SDS011;8527;49.740;6.604;2023-09-12T15:27:58;25.55;;;13.85;;
16820;SDS011;8527;49.740;6.604;2023-09-12T15:33:00;28.03;;;14.20;;
16820;SDS011;8527;49.740;6.604;2023-09-12T15:37:58;28.88;;;13.88;;
16820;SDS011;8527;49.740;6.604;2023-09-12T15:42:59;26.85;;;14.30;;
16820;SDS011;8527;49.740;6.604;2023-09-12T15:48:00;26.10;;;13.93;;
16820;SDS011;8527;49.740;6.604;2023-09-12T15:53:02;25.60;;;13.80;;
16820;SDS011;8527;49.740;6.604;2023-09-12T15:58:03;30.85;;;14.50;;
16820;SDS011;8527;49.740;6.604;2023-09-12T16:03:02;28.60;;;15.00;;
16820;SDS011;8527;49.740;6.604;2023-09-12T16:08:01;24.08;;;14.68;;
16820;SDS011;8527;49.740;6.604;2023-09-12T16:12:59;21.70;;;14.23;;
16820;SDS011;8527;49.740;6.604;2023-09-12T16:18:00;28.38;;;15.63;;
16820;SDS011;8527;49.740;6.604;2023-09-12T16:22:59;23.08;;;14.32;;
16820;SDS011;8527;49.740;6.604;2023-09-12T16:28:01;24.42;;;13.60;;
16820;SDS011;8527;49.740;6.604;2023-09-12T16:33:02;25.70;;;13.50;;
16820;SDS011;8527;49.740;6.604;2023-09-12T16:38:01;27.63;;;12.35;;
16820;SDS011;8527;49.740;6.604;2023-09-12T16:42:59;22.63;;;12.40;;
16820;SDS011;8527;49.740;6.604;2023-09-12T16:47:58;26.20;;;13.18;;
16820;SDS011;8527;49.740;6.604;2023-09-12T16:53:00;32.90;;;12.05;;
16820;SDS011;8527;49.740;6.604;2023-09-12T16:57:59;31.48;;;12.82;;
16820;SDS011;8527;49.740;6.604;2023-09-12T17:02:57;27.13;;;12.15;;
16820;SDS011;8527;49.740;6.604;2023-09-12T17:07:56;20.45;;;10.95;;
16820;SDS011;8527;49.740;6.604;2023-09-12T17:12:57;27.83;;;12.25;;
16820;SDS011;8527;49.740;6.604;2023-09-12T17:17:56;28.95;;;11.13;;
16820;SDS011;8527;49.740;6.604;2023-09-12T17:22:54;19.40;;;11.00;;
16820;SDS011;8527;49.740;6.604;2023-09-12T17:27:58;20.88;;;10.23;;
16820;SDS011;8527;49.740;6.604;2023-09-12T17:32:57;35.30;;;12.18;;
16820;SDS011;8527;49.740;6.604;2023-09-12T17:37:55;33.88;;;10.68;;
16820;SDS011;8527;49.740;6.604;2023-09-12T17:42:54;24.65;;;10.50;;
16820;SDS011;8527;49.740;6.604;2023-09-12T17:47:57;26.27;;;10.52;;
16820;SDS011;8527;49.740;6.604;2023-09-12T17:52:58;19.52;;;10.02;;
16820;SDS011;8527;49.740;6.604;2023-09-12T17:57:56;25.77;;;10.32;;
16820;SDS011;8527;49.740;6.604;2023-09-12T18:02:57;21.90;;;10.70;;
16820;SDS011;8527;49.740;6.604;2023-09-12T18:07:56;25.60;;;10.85;;
16820;SDS011;8527;49.740;6.604;2023-09-12T18:12:54;25.23;;;11.00;;
16820;SDS011;8527;49.740;6.604;2023-09-12T18:17:53;17.83;;;10.05;;
16820;SDS011;8527;49.740;6.604;2023-09-12T18:22:54;23.20;;;10.80;;
16820;SDS011;8527;49.740;6.604;2023-09-12T18:27:52;26.15;;;11.40;;
16820;SDS011;8527;49.740;6.604;2023-09-12T18:32:51;22.10;;;10.90;;
16820;SDS011;8527;49.740;6.604;2023-09-12T18:37:54;20.33;;;10.50;;
16820;SDS011;8527;49.740;6.604;2023-09-12T18:42:54;14.77;;;10.02;;
16820;SDS011;8527;49.740;6.604;2023-09-12T18:47:55;19.38;;;9.50;;
16820;SDS011;8527;49.740;6.604;2023-09-12T18:52:56;19.92;;;9.98;;
16820;SDS011;8527;49.740;6.604;2023-09-12T18:57:58;14.77;;;9.65;;
16820;SDS011;8527;49.740;6.604;2023-09-12T19:02:59;14.13;;;8.75;;
16820;SDS011;8527;49.740;6.604;2023-09-12T19:08:03;20.05;;;10.45;;
16820;SDS011;8527;49.740;6.604;2023-09-12T19:13:02;19.30;;;10.15;;
16820;SDS011;8527;49.740;6.604;2023-09-12T19:18:04;22.58;;;8.98;;
16820;SDS011;8527;49.740;6.604;2023-09-12T19:23:09;19.27;;;8.68;;
16820;SDS011;8527;49.740;6.604;2023-09-12T19:28:09;14.82;;;7.57;;
16820;SDS011;8527;49.740;6.604;2023-09-12T19:33:08;14.65;;;7.50;;
16820;SDS011;8527;49.740;6.604;2023-09-12T19:38:09;11.57;;;7.43;;
16820;SDS011;8527;49.740;6.604;2023-09-12T19:43:08;13.75;;;6.28;;
16820;SDS011;8527;49.740;6.604;2023-09-12T19:48:07;9.50;;;6.22;;
16820;SDS011;8527;49.740;6.604;2023-09-12T19:53:06;12.95;;;6.35;;
16820;SDS011;8527;49.740;6.604;2023-09-12T19:58:10;12.77;;;5.63;;
16820;SDS011;8527;49.740;6.604;2023-09-12T20:03:09;13.05;;;5.88;;
16820;SDS011;8527;49.740;6.604;2023-09-12T20:08:08;12.48;;;6.25;;
16820;SDS011;8527;49.740;6.604;2023-09-12T20:13:11;14.25;;;5.72;;
16820;SDS011;8527;49.740;6.604;2023-09-12T20:18:12;11.13;;;5.75;;
16820;SDS011;8527;49.740;6.604;2023-09-12T20:23:10;8.88;;;5.00;;
16820;SDS011;8527;49.740;6.604;2023-09-12T20:28:11;10.70;;;5.40;;
16820;SDS011;8527;49.740;6.604;2023-09-12T20:33:10;9.60;;;5.40;;
16820;SDS011;8527;49.740;6.604;2023-09-12T20:38:08;7.18;;;4.90;;
16820;SDS011;8527;49.740;6.604;2023-09-12T20:43:06;10.68;;;5.25;;
16820;SDS011;8527;49.740;6.604;2023-09-12T20:48:07;12.13;;;5.38;;
16820;SDS011;8527;49.740;6.604;2023-09-12T20:53:07;12.65;;;5.25;;
16820;SDS011;8527;49.740;6.604;2023-09-12T20:58:12;9.52;;;4.40;;
16820;SDS011;8527;49.740;6.604;2023-09-12T21:03:16;10.00;;;4.68;;
16820;SDS011;8527;49.740;6.604;2023-09-12T21:08:14;11.18;;;4.93;;
16820;SDS011;8527;49.740;6.604;2023-09-12T21:13:14;13.40;;;4.70;;
16820;SDS011;8527;49.740;6.604;2023-09-12T21:18:12;11.30;;;4.97;;
16820;SDS011;8527;49.740;6.604;2023-09-12T21:23:13;10.50;;;4.30;;
16820;SDS011;8527;49.740;6.604;2023-09-12T21:28:12;9.63;;;5.35;;
16820;SDS011;8527;49.740;6.604;2023-09-12T21:33:10;9.85;;;4.63;;
16820;SDS011;8527;49.740;6.604;2023-09-12T21:38:09;10.48;;;5.25;;
16820;SDS011;8527;49.740;6.604;2023-09-12T21:43:16;9.13;;;4.70;;
16820;SDS011;8527;49.740;6.604;2023-09-12T21:48:17;9.85;;;4.57;;
16820;SDS011;8527;49.740;6.604;2023-09-12T21:53:21;8.35;;;4.47;;
16820;SDS011;8527;49.740;6.604;2023-09-12T21:58:21;9.63;;;4.90;;
16820;SDS011;8527;49.740;6.604;2023-09-12T22:03:22;12.38;;;4.70;;
16820;SDS011;8527;49.740;6.604;2023-09-12T22:08:23;12.80;;;5.38;;
16820;SDS011;8527;49.740;6.604;2023-09-12T22:13:24;9.88;;;4.60;;
16820;SDS011;8527;49.740;6.604;2023-09-12T22:18:23;9.18;;;5.03;;
16820;SDS011;8527;49.740;6.604;2023-09-12T22:23:23;13.50;;;5.07;;
16820;SDS011;8527;49.740;6.604;2023-09-12T22:28:22;11.73;;;5.22;;
16820;SDS011;8527;49.740;6.604;2023-09-12T22:33:21;8.48;;;4.97;;
16820;SDS011;8527;49.740;6.604;2023-09-12T22:38:19;11.82;;;5.47;;
16820;SDS011;8527;49.740;6.604;2023-09-12T22:43:20;12.63;;;5.30;;
16820;SDS011;8527;49.740;6.604;2023-09-12T22:48:19;12.02;;;6.28;;
16820;SDS011;8527;49.740;6.604;2023-09-12T22:53:17;15.02;;;6.40;;
16820;SDS011;8527;49.740;6.604;2023-09-12T22:58:16;15.07;;;5.38;;
16820;SDS011;8527;49.740;6.604;2023-09-12T23:03:17;13.90;;;5.72;;
16820;SDS011;8527;49.740;6.604;2023-09-12T23:08:16;10.13;;;5.68;;
16820;SDS011;8527;49.740;6.604;2023-09-12T23:13:14;9.45;;;5.18;;
16820;SDS011;8527;49.740;6.604;2023-09-12T23:18:12;10.82;;;5.60;;
16820;SDS011;8527;49.740;6.604;2023-09-12T23:23:14;16.75;;;5.15;;
16820;SDS011;8527;49.740;6.604;2023-09-12T23:28:12;11.57;;;5.00;;
16820;SDS011;8527;49.740;6.604;2023-09-12T23:33:10;16.50;;;5.65;;
16820;SDS011;8527;49.740;6.604;2023-09-12T23:38:09;11.00;;;5.65;;
16820;SDS011;8527;49.740;6.604;2023-09-12T23:43:10;11.57;;;5.68;;
16820;SDS011;8527;49.740;6.604;2023-09-12T23:48:09;8.85;;;5.43;;
16820;SDS011;8527;49.740;6.604;2023-09-12T23:53:08;9.95;;;5.25;;
16820;SDS011;8527;49.740;6.604;2023-09-12T23:58:07;10.98;;;5.07;;
